• Join FlightAware (Why Join?)
  • Login
  • US Flag 
11:24AM EST


 

Airport Tracker/Info


-or-


 

Live Flight TrackerFlight Track Log ✈ AFL150 ✈ 18-Feb-2014 ✈ UUEE / SVO - MUHA / HAV

Flight Track Log - Related Links

Times and Time Zones

All times are in EST time to prevent confusion due to time zone crossing. See the AFL150 flight status page for this flight to view local times or setup timezone preferences in your user account.

Time Position Orientation Groundspeed Altitude Reporting Facility
EST Latitude Longitude Course Direction KTS MPH feet Rate Location/Type
04:40AM 56.1478 36.9238 307° West  Level Estimated
04:41AM 56.2154 36.7587 306° West  Level Estimated
04:42AM 56.2828 36.5930 306° West  Level Estimated
04:43AM 56.3499 36.4268 306° West  Level Estimated
04:44AM 56.4169 36.2599 306° West  Level Estimated
04:45AM 56.4836 36.0925 306° West  Level Estimated
04:46AM 56.5501 35.9245 306° West  Level Estimated
04:47AM 56.6164 35.7559 306° West  Level Estimated
04:48AM 56.6824 35.5867 305° West  Level Estimated
04:49AM 56.7482 35.4170 305° West  Level Estimated
04:50AM 56.8138 35.2466 305° West  Level Estimated
04:51AM 56.8792 35.0756 305° West  Level Estimated
04:52AM 56.9443 34.9040 305° West  Level Estimated
04:53AM 57.0091 34.7319 305° West  Level Estimated
04:54AM 57.0738 34.5591 305° West  Level Estimated
04:55AM 57.1382 34.3857 304° West  Level Estimated
04:56AM 57.2023 34.2118 304° West  Level Estimated
04:57AM 57.2663 34.0372 304° West  Level Estimated
04:58AM 57.3299 33.8620 304° West  Level Estimated
04:59AM 57.3934 33.6862 304° West  Level Estimated
05:00AM 57.4566 33.5098 304° West  Level Estimated
05:01AM 57.5195 33.3328 304° West  Level Estimated
05:02AM 57.5822 33.1552 303° West  Level Estimated
05:03AM 57.6446 32.9770 303° West  Level Estimated
05:04AM 57.7068 32.7981 303° West  Level Estimated
05:05AM 57.7679 32.6210 303° West  Level Estimated
05:06AM 57.8288 32.4433 303° West  Level Estimated
05:07AM 57.8895 32.2650 303° West  Level Estimated
05:08AM 57.9498 32.0861 303° West  Level Estimated
05:09AM 58.0100 31.9066 302° West  Level Estimated
05:10AM 58.0698 31.7265 302° West  Level Estimated
05:11AM 58.1295 31.5457 302° West  Level Estimated
05:12AM 58.1888 31.3644 302° West  Level Estimated
05:13AM 58.2479 31.1825 302° West  Level Estimated
05:14AM 58.3068 31.0000 302° West  Level Estimated
05:15AM 58.3653 30.8168 301° West  Level Estimated
05:16AM 58.4236 30.6331 301° West  Level Estimated
05:17AM 58.4817 30.4487 301° West  Level Estimated
05:18AM 58.5395 30.2637 301° West  Level Estimated
05:19AM 58.5970 30.0782 301° West  Level Estimated
05:20AM 58.6543 29.8920 301° West  Level Estimated
05:21AM 58.7113 29.7052 300° West  Level Estimated
05:22AM 58.7680 29.5178 300° West  Level Estimated
05:23AM 58.8244 29.3298 300° West  Level Estimated
05:24AM 58.8806 29.1411 300° West  Level Estimated
05:25AM 58.9365 28.9519 300° West  Level Estimated
05:26AM 58.9921 28.7620 300° West  Level Estimated
05:27AM 59.0475 28.5716 300° West  Level Estimated
05:28AM 59.1025 28.3805 299° West  Level Estimated
05:29AM 59.1573 28.1888 299° West  Level Estimated
05:30AM 59.2118 27.9965 299° West  Level Estimated
05:31AM 59.2660 27.8036 299° West  Level Estimated
05:32AM 59.3199 27.6100 299° West  Level Estimated
05:33AM 59.3736 27.4159 299° West  Level Estimated
05:34AM 59.4269 27.2211 298° West  Level Estimated
05:35AM 59.4799 27.0258 298° West  Level Estimated
05:36AM 59.5327 26.8298 298° West  Level Estimated
05:37AM 59.5852 26.6332 298° West  Level Estimated
05:38AM 59.6373 26.4360 298° West  Level Estimated
05:39AM 59.6892 26.2381 298° West  Level Estimated
05:40AM 59.7408 26.0397 297° West  Level Estimated
05:41AM 59.7921 25.8407 297° West  Level Estimated
05:42AM 59.8431 25.6410 297° West  Level Estimated
05:43AM 59.8937 25.4407 297° West  Level Estimated
05:44AM 59.9441 25.2398 297° West  Level Estimated
05:45AM 59.9942 25.0383 296° West  Level Estimated
05:46AM 60.0439 24.8363 296° West  Level Estimated
05:47AM 60.0934 24.6336 296° West  Level Estimated
05:48AM 60.1425 24.4302 296° West  Level Estimated
05:49AM 60.1913 24.2263 296° West  Level Estimated
05:50AM 60.2398 24.0218 296° West  Level Estimated
05:51AM 60.2880 23.8167 295° West  Level Estimated
05:52AM 60.3359 23.6109 295° West  Level Estimated
05:53AM 60.3834 23.4046 295° West  Level Estimated
05:54AM 60.4307 23.1977 295° West  Level Estimated
05:55AM 60.4776 22.9901 295° West  Level Estimated
05:56AM 60.5242 22.7820 295° West  Level Estimated
05:57AM 60.5704 22.5733 294° West  Level Estimated
05:58AM 60.6164 22.3639 294° West  Level Estimated
05:59AM 60.6620 22.1540 294° West  Level Estimated
06:00AM 60.7073 21.9435 294° West  Level Estimated
06:01AM 60.7522 21.7324 294° West  Level Estimated
06:02AM 60.7968 21.5207 293° West  Level Estimated
06:03AM 60.8411 21.3084 293° West  Level Estimated
06:04AM 60.8851 21.0955 293° West  Level Estimated
06:05AM 60.9287 20.8821 293° West  Level Estimated
06:06AM 60.9720 20.6680 293° West  Level Estimated
06:07AM 61.0149 20.4534 293° West  Level Estimated
06:08AM 61.0575 20.2382 292° West  Level Estimated
06:09AM 61.0997 20.0224 292° West  Level Estimated
06:10AM 61.1416 19.8061 292° West  Level Estimated
06:11AM 61.1832 19.5891 292° West  Level Estimated
06:12AM 61.2244 19.3717 292° West  Level Estimated
06:13AM 61.2653 19.1536 291° West  Level Estimated
06:14AM 61.3058 18.9349 291° West  Level Estimated
06:15AM 61.3459 18.7158 291° West  Level Estimated
06:16AM 61.3857 18.4960 291° West  Level Estimated
06:17AM 61.4252 18.2757 291° West  Level Estimated
06:18AM 61.4643 18.0548 290° West  Level Estimated
06:19AM 61.5030 17.8334 290° West  Level Estimated
06:20AM 61.5414 17.6114 290° West  Level Estimated
06:21AM 61.5794 17.3889 290° West  Level Estimated
06:22AM 61.6170 17.1659 290° West  Level Estimated
06:23AM 61.6543 16.9423 289° West  Level Estimated
06:24AM 61.6912 16.7181 289° West  Level Estimated
06:25AM 61.7278 16.4935 289° West  Level Estimated
06:26AM 61.7640 16.2682 289° West  Level Estimated
06:27AM 61.7998 16.0425 289° West  Level Estimated
06:28AM 61.8353 15.8163 288° West  Level Estimated
06:29AM 61.8703 15.5895 288° West  Level Estimated
06:30AM 61.9050 15.3622 288° West  Level Estimated
06:31AM 61.9393 15.1344 288° West  Level Estimated
06:32AM 61.9733 14.9061 288° West  Level Estimated
06:33AM 62.0069 14.6772 287° West  Level Estimated
06:34AM 62.0401 14.4479 287° West  Level Estimated
06:35AM 62.0729 14.2181 287° West  Level Estimated
06:36AM 62.1053 13.9878 287° West  Level Estimated
06:37AM 62.1373 13.7570 287° West  Level Estimated
06:38AM 62.1690 13.5257 286° West  Level Estimated
06:39AM 62.2002 13.2939 286° West  Level Estimated
06:40AM 62.2311 13.0617 286° West  Level Estimated
06:41AM 62.2616 12.8289 286° West  Level Estimated
06:42AM 62.2917 12.5958 286° West  Level Estimated
06:43AM 62.3214 12.3621 285° West  Level Estimated
06:44AM 62.3507 12.1280 285° West  Level Estimated
06:45AM 62.3797 11.8934 285° West  Level Estimated
06:46AM 62.4082 11.6584 285° West  Level Estimated
06:47AM 62.4363 11.4229 285° West  Level Estimated
06:48AM 62.4641 11.1870 284° West  Level Estimated
06:49AM 62.4914 10.9507 284° West  Level Estimated
06:50AM 62.5183 10.7139 284° West  Level Estimated
06:51AM 62.5449 10.4767 284° West  Level Estimated
06:52AM 62.5710 10.2391 284° West  Level Estimated
06:53AM 62.5967 10.0010 283° West  Level Estimated
06:54AM 62.6221 9.7626 283° West  Level Estimated
06:55AM 62.6470 9.5238 283° West  Level Estimated
06:56AM 62.6715 9.2845 283° West  Level Estimated
06:57AM 62.6956 9.0449 282° West  Level Estimated
06:58AM 62.7193 8.8049 282° West  Level Estimated
06:59AM 62.7425 8.5645 282° West  Level Estimated
07:00AM 62.7654 8.3237 282° West  Level Estimated
07:01AM 62.7879 8.0825 282° West  Level Estimated
07:02AM 62.8099 7.8410 281° West  Level Estimated
07:03AM 62.8316 7.5991 281° West  Level Estimated
07:04AM 62.8528 7.3569 281° West  Level Estimated
07:05AM 62.8736 7.1143 281° West  Level Estimated
07:06AM 62.8940 6.8714 281° West  Level Estimated
07:07AM 62.9139 6.6281 280° West  Level Estimated
07:08AM 62.9335 6.3846 280° West  Level Estimated
07:09AM 62.9526 6.1407 280° West  Level Estimated
07:10AM 62.9713 5.8964 280° West  Level Estimated
07:11AM 62.9896 5.6519 279° West  Level Estimated
07:12AM 63.0074 5.4071 279° West  Level Estimated
07:13AM 63.0249 5.1620 279° West  Level Estimated
07:14AM 63.0419 4.9166 279° West  Level Estimated
07:15AM 63.0585 4.6708 279° West  Level Estimated
07:16AM 63.0746 4.4249 278° West  Level Estimated
07:17AM 63.0904 4.1786 278° West  Level Estimated
07:18AM 63.1057 3.9321 278° West  Level Estimated
07:19AM 63.1206 3.6854 278° West  Level Estimated
07:20AM 63.1350 3.4384 277° West  Level Estimated
07:21AM 63.1490 3.1911 277° West  Level Estimated
07:22AM 63.1626 2.9436 277° West  Level Estimated
07:23AM 63.1758 2.6959 277° West  Level Estimated
07:24AM 63.1885 2.4480 277° West  Level Estimated
07:25AM 63.2008 2.1998 276° West  Level Estimated
07:26AM 63.2127 1.9514 276° West  Level Estimated
07:27AM 63.2241 1.7029 276° West  Level Estimated
07:28AM 63.2351 1.4541 276° West  Level Estimated
07:29AM 63.2456 1.2052 275° West  Level Estimated
07:30AM 63.2558 0.9561 275° West  Level Estimated
07:31AM 63.2654 0.7068 275° West  Level Estimated
07:32AM 63.2747 0.4573 275° West  Level Estimated
07:33AM 63.2835 0.2077 275° West  Level Estimated
07:34AM 63.2919 -0.0420 274° West  Level Estimated
07:35AM 63.2998 -0.2919 274° West  Level Estimated
07:36AM 63.3073 -0.5420 274° West  Level Estimated
07:37AM 63.3144 -0.7921 274° West  Level Estimated
07:38AM 63.3210 -1.0424 273° West  Level Estimated
07:39AM 63.3272 -1.2928 273° West  Level Estimated
07:40AM 63.3330 -1.5433 273° West  Level Estimated
07:41AM 63.3383 -1.7939 273° West  Level Estimated
07:42AM 63.3431 -2.0445 273° West  Level Estimated
07:43AM 63.3476 -2.2953 272° West  Level Estimated
07:44AM 63.3516 -2.5461 272° West  Level Estimated
07:45AM 63.3551 -2.7970 272° West  Level Estimated
07:46AM 63.3582 -3.0480 272° West  Level Estimated
07:47AM 63.3609 -3.2990 271° West  Level Estimated
07:48AM 63.3631 -3.5501 271° West  Level Estimated
07:49AM 63.3649 -3.8012 271° West  Level Estimated
07:50AM 63.3663 -4.0523 271° West  Level Estimated
07:51AM 63.3672 -4.3034 271° West  Level Estimated
07:52AM 63.3676 -4.5545 270° West  Level Estimated
07:53AM 63.3676 -4.8057 270° West  Level Estimated
07:54AM 63.3672 -5.0568 270° West  Level Estimated
07:55AM 63.3664 -5.3080 270° West  Level Estimated
07:56AM 63.3651 -5.5591 269° West  Level Estimated
07:57AM 63.3633 -5.8102 269° West  Level Estimated
07:58AM 63.3611 -6.0612 269° West  Level Estimated
07:59AM 63.3585 -6.3122 269° West  Level Estimated
08:00AM 63.3555 -6.5632 269° West  Level Estimated
08:01AM 63.3520 -6.8141 268° West  Level Estimated
08:02AM 63.3480 -7.0649 268° West  Level Estimated
08:03AM 63.3436 -7.3157 268° West  Level Estimated
08:04AM 63.3388 -7.5664 268° West  Level Estimated
08:05AM 63.3335 -7.8170 267° West  Level Estimated
08:06AM 63.3278 -8.0675 267° West  Level Estimated
08:07AM 63.3217 -8.3179 267° West  Level Estimated
08:08AM 63.3151 -8.5682 267° West  Level Estimated
08:09AM 63.3081 -8.8184 267° West  Level Estimated
08:10AM 63.3006 -9.0684 266° West  Level Estimated
08:11AM 63.2927 -9.3183 266° West  Level Estimated
08:12AM 63.2844 -9.5681 266° West  Level Estimated
08:13AM 63.2756 -9.8177 266° West  Level Estimated
08:14AM 63.2664 -10.0672 265° West  Level Estimated
08:15AM 63.2568 -10.3165 265° West  Level Estimated
08:16AM 63.2467 -10.5656 265° West  Level Estimated
08:17AM 63.2362 -10.8146 265° West  Level Estimated
08:18AM 63.2252 -11.0634 265° West  Level Estimated
08:19AM 63.2138 -11.3119 264° West  Level Estimated
08:20AM 63.2020 -11.5603 264° West  Level Estimated
08:21AM 63.1898 -11.8085 264° West  Level Estimated
08:22AM 63.1771 -12.0565 264° West  Level Estimated
08:23AM 63.1640 -12.3042 263° West  Level Estimated
08:24AM 63.1504 -12.5517 263° West  Level Estimated
08:25AM 63.1364 -12.7990 263° West  Level Estimated
08:26AM 63.1220 -13.0460 263° West  Level Estimated
08:27AM 63.1072 -13.2928 263° West  Level Estimated
08:28AM 63.0919 -13.5393 262° West  Level Estimated
08:29AM 63.0762 -13.7856 262° West  Level Estimated
08:30AM 63.0601 -14.0316 262° West  Level Estimated
08:31AM 63.0436 -14.2774 262° West  Level Estimated
08:32AM 63.0266 -14.5228 261° West  Level Estimated
08:33AM 63.0092 -14.7679 261° West  Level Estimated
08:34AM 62.9914 -15.0128 261° West  Level Estimated
08:35AM 62.9732 -15.2574 261° West  Level Estimated
08:36AM 62.9545 -15.5016 261° West  Level Estimated
08:37AM 62.9354 -15.7455 260° West  Level Estimated
08:38AM 62.9159 -15.9892 260° West  Level Estimated
08:39AM 62.8960 -16.2324 260° West  Level Estimated
08:40AM 62.8757 -16.4754 260° West  Level Estimated
08:41AM 62.8549 -16.7180 259° West  Level Estimated
08:42AM 62.8337 -16.9603 259° West  Level Estimated
08:43AM 62.8121 -17.2022 259° West  Level Estimated
08:44AM 62.7901 -17.4437 259° West  Level Estimated
08:45AM 62.7677 -17.6849 259° West  Level Estimated
08:46AM 62.7449 -17.9257 258° West  Level Estimated
08:47AM 62.7216 -18.1662 258° West  Level Estimated
08:48AM 62.6980 -18.4062 258° West  Level Estimated
08:49AM 62.6739 -18.6459 258° West  Level Estimated
08:50AM 62.6495 -18.8852 258° West  Level Estimated
08:51AM 62.6246 -19.1241 257° West  Level Estimated
08:52AM 62.5993 -19.3626 257° West  Level Estimated
08:53AM 62.5736 -19.6006 257° West  Level Estimated
08:54AM 62.5475 -19.8383 257° West  Level Estimated
08:55AM 62.5210 -20.0755 256° West  Level Estimated
08:56AM 62.4941 -20.3123 256° West  Level Estimated
08:57AM 62.4668 -20.5487 256° West  Level Estimated
08:58AM 62.4391 -20.7847 256° West  Level Estimated
08:59AM 62.4110 -21.0202 256° West  Level Estimated
09:00AM 62.3825 -21.2552 255° West  Level Estimated
09:01AM 62.3537 -21.4899 255° West  Level Estimated
09:02AM 62.3244 -21.7240 255° West  Level Estimated
09:03AM 62.2947 -21.9577 255° West  Level Estimated
09:04AM 62.2646 -22.1910 255° West  Level Estimated
09:05AM 62.2342 -22.4237 254° West  Level Estimated
09:06AM 62.2034 -22.6560 254° West  Level Estimated
09:07AM 62.1721 -22.8878 254° West  Level Estimated
09:08AM 62.1405 -23.1192 254° West  Level Estimated
09:09AM 62.1085 -23.3500 254° West  Level Estimated
09:10AM 62.0761 -23.5804 253° West  Level Estimated
09:11AM 62.0434 -23.8103 253° West  Level Estimated
09:12AM 62.0102 -24.0396 253° West  Level Estimated
09:13AM 61.9767 -24.2685 253° West  Level Estimated
09:14AM 61.9428 -24.4969 253° West  Level Estimated
09:15AM 61.9085 -24.7248 252° West  Level Estimated
09:16AM 61.8738 -24.9521 252° West  Level Estimated
09:17AM 61.8388 -25.1789 252° West  Level Estimated
09:18AM 61.8034 -25.4052 252° West  Level Estimated
09:19AM 61.7676 -25.6310 252° West  Level Estimated
09:20AM 61.7314 -25.8563 251° West  Level Estimated
09:21AM 61.6949 -26.0810 251° West  Level Estimated
09:22AM 61.6581 -26.3052 251° West  Level Estimated
09:23AM 61.6208 -26.5288 251° West  Level Estimated
09:24AM 61.5832 -26.7519 251° West  Level Estimated
09:25AM 61.5452 -26.9745 250° West  Level Estimated
09:26AM 61.5069 -27.1965 250° West  Level Estimated
09:27AM 61.4682 -27.4180 250° West  Level Estimated
09:28AM 61.4291 -27.6389 250° West  Level Estimated
09:29AM 61.3897 -27.8593 250° West  Level Estimated
09:30AM 61.3499 -28.0791 249° West  Level Estimated
09:31AM 61.3098 -28.2984 249° West  Level Estimated
09:32AM 61.2693 -28.5170 249° West  Level Estimated
09:33AM 61.2285 -28.7352 249° West  Level Estimated
09:34AM 61.1873 -28.9527 249° West  Level Estimated
09:35AM 61.1458 -29.1697 248° West  Level Estimated
09:36AM 61.1039 -29.3861 248° West  Level Estimated
09:37AM 61.0617 -29.6019 248° West  Level Estimated
09:38AM 61.0192 -29.8172 248° West  Level Estimated
09:39AM 60.9763 -30.0319 248° West  Level Estimated
09:40AM 60.9330 -30.2460 248° West  Level Estimated
09:41AM 60.8895 -30.4595 247° West  Level Estimated
09:42AM 60.8443 -30.6784 247° West  Level Estimated
09:43AM 60.7988 -30.8967 247° West  Level Estimated
09:44AM 60.7529 -31.1144 247° West  Level Estimated
09:45AM 60.7067 -31.3315 247° West  Level Estimated
09:46AM 60.6601 -31.5480 246° West  Level Estimated
09:47AM 60.6132 -31.7638 246° West  Level Estimated
09:48AM 60.5659 -31.9790 246° West  Level Estimated
09:49AM 60.5183 -32.1935 246° West  Level Estimated
09:50AM 60.4704 -32.4074 246° West  Level Estimated
09:51AM 60.4221 -32.6207 245° Southwest  Level Estimated
09:52AM 60.3734 -32.8334 245° Southwest  Level Estimated
09:53AM 60.3245 -33.0454 245° Southwest  Level Estimated
09:54AM 60.2752 -33.2568 245° Southwest  Level Estimated
09:55AM 60.2255 -33.4675 245° Southwest  Level Estimated
09:56AM 60.1755 -33.6776 245° Southwest  Level Estimated
09:57AM 60.1252 -33.8871 244° Southwest  Level Estimated
09:58AM 60.0746 -34.0959 244° Southwest  Level Estimated
09:59AM 60.0236 -34.3041 244° Southwest  Level Estimated
10:00AM 59.9723 -34.5116 244° Southwest  Level Estimated
10:01AM 59.9207 -34.7185 244° Southwest  Level Estimated
10:02AM 59.8688 -34.9248 243° Southwest  Level Estimated
10:03AM 59.8165 -35.1303 243° Southwest  Level Estimated
10:04AM 59.7639 -35.3353 243° Southwest  Level Estimated
10:05AM 59.7110 -35.5396 243° Southwest  Level Estimated
10:06AM 59.6578 -35.7433 243° Southwest  Level Estimated
10:07AM 59.6043 -35.9463 243° Southwest  Level Estimated
10:08AM 59.5504 -36.1487 242° Southwest  Level Estimated
10:09AM 59.4963 -36.3504 242° Southwest  Level Estimated
10:10AM 59.4418 -36.5515 242° Southwest  Level Estimated
10:11AM 59.3871 -36.7519 242° Southwest  Level Estimated
10:12AM 59.3320 -36.9517 242° Southwest  Level Estimated
10:13AM 59.2766 -37.1508 242° Southwest  Level Estimated
10:14AM 59.2209 -37.3493 241° Southwest  Level Estimated
10:15AM 59.1649 -37.5471 241° Southwest  Level Estimated
10:16AM 59.1086 -37.7443 241° Southwest  Level Estimated
10:17AM 59.0521 -37.9408 241° Southwest  Level Estimated
10:18AM 58.9952 -38.1367 241° Southwest  Level Estimated
10:19AM 58.9380 -38.3319 240° Southwest  Level Estimated
10:20AM 58.8805 -38.5265 240° Southwest  Level Estimated
10:21AM 58.8228 -38.7205 240° Southwest  Level Estimated
10:22AM 58.7647 -38.9138 240° Southwest  Level Estimated
10:23AM 58.7064 -39.1064 240° Southwest  Level Estimated
10:24AM 58.6478 -39.2984 240° Southwest  Level Estimated
10:25AM 58.5888 -39.4898 239° Southwest  Level Estimated
10:26AM 58.5297 -39.6805 239° Southwest  Level Estimated
10:27AM 58.4702 -39.8706 239° Southwest  Level Estimated
10:28AM 58.4104 -40.0600 239° Southwest  Level Estimated
10:29AM 58.3504 -40.2488 239° Southwest  Level Estimated
10:30AM 58.2901 -40.4369 239° Southwest  Level Estimated
10:31AM 58.2295 -40.6244 239° Southwest  Level Estimated
10:32AM 58.1686 -40.8113 238° Southwest  Level Estimated
10:33AM 58.1075 -40.9975 238° Southwest  Level Estimated
10:34AM 58.0461 -41.1831 238° Southwest  Level Estimated
10:35AM 57.9844 -41.3680 238° Southwest  Level Estimated
10:36AM 57.9225 -41.5523 238° Southwest  Level Estimated
10:37AM 57.8603 -41.7360 238° Southwest  Level Estimated
10:38AM 57.7978 -41.9190 237° Southwest  Level Estimated
10:39AM 57.7351 -42.1014 237° Southwest  Level Estimated
10:40AM 57.6721 -42.2832 237° Southwest  Level Estimated
10:41AM 57.6089 -42.4643 237° Southwest  Level Estimated
10:42AM 57.5453 -42.6449 237° Southwest  Level Estimated
10:43AM 57.4816 -42.8247 237° Southwest  Level Estimated
10:44AM 57.4176 -43.0040 236° Southwest  Level Estimated
10:45AM 57.3533 -43.1826 236° Southwest  Level Estimated
10:46AM 57.2887 -43.3606 236° Southwest  Level Estimated
10:47AM 57.2240 -43.5380 236° Southwest  Level Estimated
10:48AM 57.1589 -43.7147 236° Southwest  Level Estimated
10:49AM 57.0937 -43.8909 236° Southwest  Level Estimated
10:50AM 57.0281 -44.0664 236° Southwest  Level Estimated
10:51AM 56.9624 -44.2412 235° Southwest  Level Estimated
10:52AM 56.8964 -44.4155 235° Southwest  Level Estimated
10:53AM 56.8301 -44.5892 235° Southwest  Level Estimated
10:54AM 56.7636 -44.7622 235° Southwest  Level Estimated
10:55AM 56.6969 -44.9346 235° Southwest  Level Estimated
10:56AM 56.6299 -45.1065 235° Southwest  Level Estimated
10:57AM 56.5627 -45.2777 235° Southwest  Level Estimated
10:58AM 56.4953 -45.4483 234° Southwest  Level Estimated
10:59AM 56.4276 -45.6183 234° Southwest  Level Estimated
11:00AM 56.3597 -45.7877 234° Southwest  Level Estimated
11:01AM 56.2916 -45.9564 234° Southwest  Level Estimated
11:02AM 56.2232 -46.1246 234° Southwest  Level Estimated
11:03AM 56.1546 -46.2922 234° Southwest  Level Estimated
11:04AM 56.0858 -46.4592 234° Southwest  Level Estimated
11:05AM 56.0168 -46.6256 233° Southwest  Level Estimated
11:06AM 55.9475 -46.7914 233° Southwest  Level Estimated
11:07AM 55.8781 -46.9566 233° Southwest  Level Estimated
11:08AM 55.8070 -47.1243 233° Southwest  Level Estimated
11:09AM 55.7357 -47.2914 233° Southwest  Level Estimated
11:10AM 55.6642 -47.4580 233° Southwest  Level Estimated
11:11AM 55.5925 -47.6239 233° Southwest  Level Estimated
11:12AM 55.5206 -47.7892 232° Southwest  Level Estimated
11:13AM 55.4484 -47.9539 232° Southwest  Level Estimated
11:14AM 55.3760 -48.1180 232° Southwest  Level Estimated
11:14AM 59.4167 -56.9000 232° Southwest 440 506 37,000  Level Gander Center
11:15AM 55.3035 -48.2815 232° Southwest  Level Estimated
11:15AM 59.3333 -57.0667 226° Southwest 450 518 37,000  Level Gander Center
11:16AM 55.2306 -48.4444 232° Southwest  Level Estimated
11:16AM 59.2167 -57.2167 213° Southwest 440 506 37,000  Level Gander Center
11:17AM 55.1576 -48.6067 232° Southwest  Level Estimated
11:17AM 59.1333 -57.3500 219° Southwest 440 506 37,000  Level Gander Center
11:18AM 55.0844 -48.7685 232° Southwest  Level Estimated
11:18AM 59.0167 -57.5000 214° Southwest 440 506 37,000  Level Gander Center
11:19AM 55.0109 -48.9296 232° Southwest  Level Estimated
11:19AM 58.9167 -57.6333 215° Southwest 440 506 37,000  Level Gander Center
11:20AM 58.8167 -57.7500 211° Southwest 440 506 37,000  Level Gander Center
11:21AM 58.7167 -57.8833 215° Southwest 450 518 37,000  Level Gander Center
11:22AM 58.6167 -58.0167 215° Southwest 450 518 37,000  Level Gander Center
11:23AM 58.5000 -58.1500 211° Southwest 450 518 37,000  Level Gander Center
11:24AM 58.4000 -58.3000 218° Southwest 450 518 37,000  Level Gander Center
11:25AM 58.3000 -58.4000 208° Southwest 450 518 37,000  Level Gander Center
11:26AM 58.1833 -58.5333 211° Southwest 440 506 37,000  Level Gander Center
11:27AM 58.1000 -58.6667 220° Southwest 440 506 37,000  Level Gander Center
11:28AM 58.0000 -58.8000 215° Southwest 440 506 37,000  Level Gander Center
11:29AM 57.8833 -58.9333 211° Southwest 440 506 37,000  Level Gander Center
11:30AM 57.7833 -59.0333 208° Southwest 450 518 37,000  Level Gander Center
11:31AM 57.6667 -59.1667 211° Southwest 450 518 37,000  Level Gander Center
11:32AM 57.5833 -59.2667 213° Southwest 450 518 37,000  Level Gander Center
11:33AM 57.4500 -59.4167 211° Southwest 450 518 37,000  Level Gander Center
11:34AM 57.3667 -59.5500 221° Southwest 450 518 37,000  Level Gander Center
11:35AM 57.2833 -59.6500 213° Southwest 450 518 37,000  Level Gander Center
11:36AM 57.1667 -59.7500 205° Southwest 450 518 37,000  Level Gander Center
11:37AM 57.0667 -59.8667 212° Southwest 450 518 37,000  Level Gander Center
11:38AM 56.9500 -60.0000 212° Southwest 440 506 37,000  Level Gander Center
11:39AM 56.8333 -60.1500 215° Southwest 450 518 37,000  Level Gander Center
11:40AM 56.7333 -60.2500 209° Southwest 450 518 37,000  Level Gander Center
11:41AM 56.6167 -60.3667 209° Southwest 450 518 37,000  Level Gander Center
11:42AM 56.5167 -60.5000 216° Southwest 450 518 37,000  Level Gander Center
11:43AM 56.4000 -60.6167 209° Southwest 450 518 37,000  Level Gander Center
11:44AM 56.3000 -60.7167 209° Southwest 450 518 37,000  Level Gander Center
11:45AM 56.2000 -60.8333 213° Southwest 450 518 37,000  Level Gander Center
11:46AM 56.0833 -60.9500 209° Southwest 450 518 37,000  Level Gander Center
11:47AM 55.9833 -61.0667 213° Southwest 440 506 37,000  Level Gander Center
11:48AM 55.8667 -61.2000 213° Southwest 450 518 37,000  Level Gander Center
11:49AM 55.7667 -61.2833 205° Southwest 450 518 37,000  Level Gander Center
11:50AM 55.6500 -61.4000 209° Southwest 450 518 37,000  Level Gander Center
11:51AM 55.5500 -61.5167 213° Southwest 450 518 37,000  Level Gander Center
11:52AM 55.4500 -61.6333 214° Southwest 450 518 37,000  Level Gander Center
11:53AM 55.3333 -61.7500 210° Southwest 450 518 37,000  Level Gander Center
11:54AM 55.2333 -61.8333 205° Southwest 450 518 37,000  Level Gander Center
11:55AM 55.1167 -61.9500 210° Southwest 450 518 37,000  Level Gander Center
11:56AM 55.0000 -62.0667 210° Southwest 460 529 37,000  Level Gander Center
11:57AM 54.9000 -62.1833 214° Southwest 460 529 37,000  Level Gander Center
11:58AM 54.7833 -62.3000 210° Southwest 450 518 37,000  Level Gander Center
11:59AM 54.6833 -62.4167 214° Southwest 450 518 37,000  Level Gander Center
12:00PM 54.5667 -62.5000 202° Southwest 440 506 37,000  Level Gander Center
12:01PM 54.4667 -62.6000 210° Southwest 440 506 37,000  Level Gander Center
12:02PM 54.3500 -62.7167 210° Southwest 450 518 37,000  Level Gander Center
12:03PM 54.2333 -62.8333 210° Southwest 450 518 37,000  Level Gander Center
12:04PM 54.1333 -62.9000 201° Southwest 450 518 37,000  Level Gander Center
12:05PM 54.0167 -63.0167 210° Southwest 450 518 37,000  Level Gander Center
12:06PM 53.9167 -63.1333 215° Southwest 450 518 37,000  Level Gander Center
12:07PM 53.8167 -63.2333 211° Southwest 450 518 37,000  Level Gander Center
12:08PM 53.7000 -63.3500 211° Southwest 440 506 37,000  Level Gander Center
12:09PM 53.6000 -63.4167 202° Southwest 440 506 37,000  Level Gander Center
12:10PM 53.4833 -63.5333 211° Southwest 440 506 37,000 -180 Level Gander Center
12:11PM 53.3667 -63.6333 207° Southwest 440 506 36,700 -420 Descending Gander Center
12:12PM 53.2667 -63.7167 206° Southwest 450 518 36,200 -360 Descending Gander Center
12:13PM 53.1500 -63.8167 207° Southwest 440 506 36,000 -120 Descending Gander Center
12:14PM 53.0500 -63.9167 211° Southwest 450 518 36,000  Level Gander Center
12:15PM 52.9333 -64.0333 211° Southwest 440 506 36,000  Level Gander Center
12:16PM 52.8333 -64.1000 202° Southwest 440 506 36,000  Level Gander Center
12:17PM 52.7167 -64.2000 207° Southwest 440 506 36,000  Level Gander Center
12:18PM 52.6000 -64.3167 211° Southwest 440 506 36,000  Level Gander Center
12:19PM 52.5000 -64.4167 211° Southwest 440 506 36,000  Level Gander Center
12:20PM 52.4000 -64.4833 202° Southwest 430 495 36,000  Level Gander Center
12:21PM 52.2833 -64.5833 208° Southwest 440 506 36,000  Level Gander Center
12:22PM 52.1833 -64.6667 207° Southwest 430 495 36,000  Level Gander Center
12:23PM 52.0667 -64.7667 208° Southwest 440 506 36,000  Level Gander Center
12:24PM 51.9667 -64.8667 212° Southwest 440 506 36,000  Level Gander Center
12:25PM 51.8500 -64.9667 208° Southwest 440 506 36,000  Level Gander Center
12:26PM 51.7500 -65.0333 202° Southwest 440 506 36,000  Level Gander Center
12:27PM 51.6500 -65.1333 212° Southwest 430 495 36,000  Level Gander Center
12:28PM 51.5333 -65.2000 200° South 440 506 36,000  Level Gander Center
12:29PM 51.4167 -65.3000 208° Southwest 440 506 36,000  Level Gander Center
12:30PM 51.3167 -65.4000 212° Southwest 430 495 36,000  Level Gander Center
12:31PM 51.2167 -65.4667 203° Southwest 430 495 36,000  Level Gander Center
12:32PM 51.1000 -65.5667 208° Southwest 430 495 36,000  Level Gander Center
12:33PM 50.9833 -65.6667 208° Southwest 430 495 36,000  Level Gander Center
12:34PM 50.8833 -65.7333 203° Southwest 430 495 36,000  Level Gander Center
12:35PM 50.7833 -65.8333 212° Southwest 430 495 36,000  Level Gander Center
12:36PM 50.6667 -65.9333 209° Southwest 430 495 36,000  Level Gander Center
12:37PM 50.5833 -66.0000 207° Southwest 430 495 36,000  Level Gander Center
12:38PM 50.4667 -66.1000 209° Southwest 430 495 36,000  Level Gander Center
12:39PM 50.3500 -66.1667 200° South 430 495 36,000  Level Gander Center
12:40PM 50.2500 -66.2500 208° Southwest 430 495 36,000  Level Gander Center
12:41PM 50.1500 -66.3167 203° Southwest 430 495 36,000  Level Gander Center
12:42PM 50.0167 -66.3833 198° South 430 495 36,000  Level Gander Center
12:43PM 49.9167 -66.4500 203° Southwest 430 495 36,000  Level Gander Center
12:44PM 49.8000 -66.5167 200° South 430 495 36,000  Level Gander Center
12:45PM 49.6833 -66.5833 200° South 430 495 36,000  Level Gander Center
12:46PM 49.5833 -66.6500 203° Southwest 440 506 36,000  Level Gander Center
12:47PM 49.4500 -66.7167 198° South 440 506 36,000  Level Gander Center
12:48PM 49.3333 -66.7500 191° South 430 495 36,000  Level Gander Center
12:49PM 49.2167 -66.8333 205° Southwest 440 506 36,000  Level Gander Center
12:50PM 49.1167 -66.8833 198° South 440 506 36,000  Level Gander Center
12:51PM 48.9833 -66.9667 202° Southwest 440 506 36,000  Level Gander Center
12:52PM 48.8667 -67.0000 191° South 440 506 36,000  Level Gander Center
12:53PM 48.7667 -67.0667 204° Southwest 440 506 36,000  Level Gander Center
12:54PM 48.6500 -67.1333 201° Southwest 440 506 36,000  Level Gander Center
12:59PM 48.0425 -67.4573 201° Southwest 437 503 36,000  Level FlightAware ADS-B
01:00PM 47.9818 -67.4885 199° South 438 504 36,000  Level FlightAware ADS-B
01:00PM 47.9242 -67.5181 199° South 439 505 36,000  Level FlightAware ADS-B
01:01PM 47.8654 -67.5482 199° South 438 504 36,000  Level FlightAware ADS-B
01:02PM 47.8015 -67.5808 199° South 435 501 36,000  Level FlightAware ADS-B
01:02PM 47.7319 -67.6162 199° South 434 499 36,000  Level FlightAware ADS-B
01:03PM 47.5825 -67.6922 199° South 437 503 36,000  Level FlightAware ADS-B
01:04PM 47.4945 -67.7366 199° South 438 504 36,000  Level FlightAware ADS-B
01:05PM 47.4315 -67.7683 199° South 439 505 36,000  Level FlightAware ADS-B
01:05PM 47.3756 -67.7965 199° South 440 506 36,000  Level FlightAware ADS-B
01:06PM 47.2957 -67.8365 199° South 438 504 36,000  Level FlightAware ADS-B
01:07PM 47.2267 -67.8709 199° South 437 503 36,000  Level FlightAware ADS-B
01:07PM 47.1296 -67.9194 199° South 431 496 36,000  Level FlightAware ADS-B
01:08PM 47.0695 -67.9492 199° South 429 494 36,000  Level FlightAware ADS-B
01:09PM 46.9777 -67.9947 199° South 427 491 36,000  Level FlightAware ADS-B
01:09PM 46.9230 -68.0216 199° South 423 487 36,000  Level FlightAware ADS-B
01:10PM 46.8508 -68.0570 199° South 422 486 36,000  Level FlightAware ADS-B
01:10PM 46.7809 -68.0913 199° South 426 490 36,000  Level FlightAware ADS-B
01:11PM 46.7164 -68.1206 197° South 429 494 36,000  Level FlightAware ADS-B
01:12PM 46.6575 -68.1440 195° South 425 489 36,000  Level FlightAware ADS-B
01:12PM 46.5880 -68.1724 196° South 422 486 36,000  Level FlightAware ADS-B
01:13PM 46.5310 -68.1962 196° South 420 483 36,000  Level FlightAware ADS-B
01:13PM 46.4660 -68.2229 196° South 420 483 36,000  Level FlightAware ADS-B
01:14PM 46.3960 -68.2517 196° South 418 481 36,000  Level FlightAware ADS-B
01:15PM 46.3221 -68.2820 196° South 416 479 36,000  Level FlightAware ADS-B
01:15PM 46.2773 -68.3005 196° South 415 478 36,000  Level FlightAware ADS-B
01:16PM 46.2005 -68.3320 196° South 416 479 36,000  Level FlightAware ADS-B
01:16PM 46.1368 -68.3580 196° South 418 481 36,000  Level FlightAware ADS-B
01:17PM 46.0661 -68.3869 196° South 419 482 36,000  Level FlightAware ADS-B
01:18PM 45.9897 -68.4180 196° South 420 483 36,000  Level FlightAware ADS-B
01:18PM 45.9203 -68.4461 196° South 422 486 36,000  Level FlightAware ADS-B
01:19PM 45.8558 -68.4722 196° South 422 486 36,000  Level FlightAware ADS-B
01:19PM 45.7817 -68.5021 196° South 423 487 36,000  Level FlightAware ADS-B
01:20PM 45.7040 -68.5333 196° South 426 490 36,000  Level FlightAware ADS-B
01:21PM 45.6446 -68.5571 196° South 429 494 36,000  Level FlightAware ADS-B (KBGR)
01:21PM 45.5807 -68.5827 196° South 430 495 36,000  Level FlightAware ADS-B (KBGR)
01:22PM 45.5350 -68.6009 196° South 431 496 36,000  Level FlightAware ADS-B (KBGR)
01:22PM 45.4576 -68.6318 196° South 432 497 36,000  Level FlightAware ADS-B
01:23PM 45.3973 -68.6558 196° South 433 498 36,000  Level FlightAware ADS-B
01:23PM 45.3426 -68.6775 196° South 433 498 36,000  Level FlightAware ADS-B
01:24PM 45.2822 -68.7014 196° South 432 497 36,000  Level FlightAware ADS-B (CYQI)
01:24PM 45.2179 -68.7267 195° South 431 496 36,000  Level FlightAware ADS-B (KBGR)
01:25PM 45.1484 -68.7541 196° South 431 496 36,000  Level FlightAware ADS-B (CYQI)
01:25PM 45.0895 -68.7774 196° South 432 497 36,000  Level FlightAware ADS-B
01:26PM 45.0542 -68.7970 201° Southwest 428 493 36,000  Level FlightAware ADS-B
01:26PM 45.0055 -68.8451 215° Southwest 427 491 36,000  Level FlightAware ADS-B (CYQI)
01:27PM 44.9533 -68.8974 215° Southwest 428 493 36,000  Level FlightAware ADS-B (KBGR)
01:27PM 44.8983 -68.9521 215° Southwest 430 495 36,000  Level FlightAware ADS-B (CYQI)
01:28PM 44.8424 -69.0075 215° Southwest 431 496 36,000  Level FlightAware ADS-B
01:28PM 44.7935 -69.0554 215° Southwest 432 497 36,000  Level FlightAware ADS-B
01:29PM 44.7407 -69.1073 215° Southwest 430 495 36,000  Level FlightAware ADS-B (KBGR)
01:29PM 44.6952 -69.1518 215° Southwest 429 494 36,000  Level FlightAware ADS-B (KBGR)
01:30PM 44.6608 -69.1854 215° Southwest 428 493 36,000  Level FlightAware ADS-B (CYQI)
01:31PM 44.5786 -69.2655 215° Southwest 426 490 36,000  Level FlightAware ADS-B (CYQI)
01:31PM 44.5349 -69.3081 215° Southwest 425 489 36,000  Level FlightAware ADS-B (CYQI)
01:32PM 44.4792 -69.3621 215° Southwest 425 489 36,000  Level FlightAware ADS-B (CYQI)
01:32PM 44.4688 -69.3721 215° Southwest 419 482 36,000  Level FlightAware ADS-B
01:32PM 44.4141 -69.4252 215° Southwest 425 489 36,000  Level FlightAware ADS-B
01:33PM 44.3663 -69.4713 215° Southwest 424 488 36,000  Level FlightAware ADS-B
01:33PM 44.3161 -69.5197 215° Southwest 424 488 36,000  Level FlightAware ADS-B (CYQI)
01:34PM 44.2655 -69.5684 215° Southwest 426 490 36,000  Level FlightAware ADS-B (CYQI)
01:34PM 44.2146 -69.6172 214° Southwest 426 490 36,000  Level FlightAware ADS-B (CYQI)
01:35PM 44.1577 -69.6717 214° Southwest 424 488 36,000  Level FlightAware ADS-B
01:35PM 44.1498 -69.6792 214° Southwest 418 481 36,000  Level FlightAware ADS-B
01:35PM 44.1419 -69.6868 215° Southwest 418 481 36,000  Level FlightAware ADS-B
01:35PM 44.1129 -69.7144 214° Southwest 425 489 36,000  Level FlightAware ADS-B (KBGR)
01:36PM 44.0609 -69.7641 214° Southwest 424 488 36,000  Level FlightAware ADS-B (CYQI)
01:37PM 44.0083 -69.8141 214° Southwest 425 489 36,000  Level FlightAware ADS-B (CYQI)
01:37PM 43.9436 -69.8754 214° Southwest 427 491 36,000  Level FlightAware ADS-B (KBOS)
01:38PM 43.8929 -69.9233 214° Southwest 429 494 36,000  Level FlightAware ADS-B (CYQI)
01:38PM 43.8389 -69.9746 214° Southwest 431 496 36,000  Level FlightAware ADS-B
01:39PM 43.7826 -70.0277 214° Southwest 431 496 36,000  Level FlightAware ADS-B
01:39PM 43.7331 -70.0742 214° Southwest 431 496 36,000  Level FlightAware ADS-B
01:40PM 43.6820 -70.1222 214° Southwest 429 494 36,000  Level FlightAware ADS-B
01:40PM 43.6314 -70.1695 214° Southwest 426 490 36,000  Level FlightAware ADS-B
01:41PM 43.5788 -70.2186 214° Southwest 416 479 36,000  Level FlightAware ADS-B
01:41PM 43.5333 -70.2610 214° Southwest 422 486 36,000  Level FlightAware ADS-B (KBOS)
01:42PM 43.4810 -70.3097 214° Southwest 414 476 36,000  Level FlightAware ADS-B
01:42PM 43.4333 -70.3540 214° Southwest 413 475 36,000  Level FlightAware ADS-B
01:43PM 43.3764 -70.4068 214° Southwest 415 478 36,000  Level FlightAware ADS-B
01:43PM 43.3654 -70.4170 214° Southwest 422 486 36,000  Level FlightAware ADS-B (SBBR / BSB)
01:44PM 43.3161 -70.4626 214° Southwest 422 486 36,000  Level FlightAware ADS-B (SBBR / BSB)
01:44PM 43.3106 -70.4677 214° Southwest 422 486 36,000  Level FlightAware ADS-B (CYQI)
01:44PM 43.2591 -70.5152 214° Southwest 423 487 36,000  Level FlightAware ADS-B (SBBR / BSB)
01:45PM 43.2064 -70.5637 214° Southwest 424 488 36,000  Level FlightAware ADS-B
01:45PM 43.1501 -70.6156 214° Southwest 422 486 36,000  Level FlightAware ADS-B (SBBR / BSB)
01:46PM 43.0876 -70.6728 214° Southwest 421 484 36,000  Level FlightAware ADS-B (SBBR / BSB)
01:47PM 43.0317 -70.7238 214° Southwest 421 484 36,000  Level FlightAware ADS-B (KBOS)
01:47PM 42.9711 -70.7791 214° Southwest 423 487 36,000  Level FlightAware ADS-B
01:48PM 42.9211 -70.8246 214° Southwest 424 488 36,000  Level FlightAware ADS-B
01:48PM 42.8716 -70.8696 214° Southwest 426 490 36,000  Level FlightAware ADS-B
01:49PM 42.8118 -70.9237 214° Southwest 426 490 36,000  Level FlightAware ADS-B (KBOS)
01:49PM 42.7587 -70.9718 214° Southwest 426 490 36,000  Level FlightAware ADS-B (KBOS)
01:50PM 42.7029 -71.0221 214° Southwest 427 491 36,000  Level FlightAware ADS-B
01:50PM 42.6524 -71.0677 214° Southwest 428 493 36,000  Level FlightAware ADS-B (KBOS)
01:51PM 42.6009 -71.1139 213° Southwest 426 490 36,000  Level FlightAware ADS-B
01:51PM 42.5499 -71.1597 213° Southwest 424 488 36,000  Level FlightAware ADS-B
01:52PM 42.4983 -71.2058 213° Southwest 423 487 36,000  Level FlightAware ADS-B (KBOS)
01:52PM 42.4488 -71.2498 213° Southwest 425 489 36,000  Level FlightAware ADS-B
01:53PM 42.4307 -71.2661 213° Southwest 426 490 36,000  Level FlightAware ADS-B
01:53PM 42.3812 -71.3101 213° Southwest 427 491 36,000  Level FlightAware ADS-B
01:54PM 42.3311 -71.3548 213° Southwest 424 488 36,000  Level FlightAware ADS-B
01:54PM 42.2827 -71.3978 213° Southwest 422 486 36,000  Level FlightAware ADS-B
01:55PM 42.2335 -71.4414 213° Southwest 419 482 36,000  Level FlightAware ADS-B
01:55PM 42.1656 -71.5015 213° Southwest 409 471 36,000  Level FlightAware ADS-B
01:56PM 42.1175 -71.5440 213° Southwest 407 468 36,000  Level FlightAware ADS-B
01:56PM 42.0645 -71.5904 213° Southwest 407 468 36,000  Level FlightAware ADS-B
01:57PM 42.0293 -71.6214 213° Southwest 407 468 36,000  Level FlightAware ADS-B
01:57PM 42.0086 -71.6395 213° Southwest 413 475 36,000  Level FlightAware ADS-B (KBOS)
01:57PM 41.9918 -71.6541 213° Southwest 414 476 36,000  Level FlightAware ADS-B (KBOS)
01:57PM 41.9740 -71.6697 213° Southwest 415 478 36,000  Level FlightAware ADS-B
01:58PM 41.9298 -71.7085 213° Southwest 409 471 36,000  Level FlightAware ADS-B
01:58PM 41.9137 -71.7226 213° Southwest 410 472 36,000  Level FlightAware ADS-B
01:58PM 41.8993 -71.7353 213° Southwest 411 473 36,000  Level FlightAware ADS-B
01:58PM 41.8813 -71.7510 213° Southwest 412 474 36,000  Level FlightAware ADS-B
01:58PM 41.8655 -71.7649 213° Southwest 412 474 36,000  Level FlightAware ADS-B
01:59PM 41.8503 -71.7783 213° Southwest 412 474 36,000  Level FlightAware ADS-B
01:59PM 41.7993 -71.8225 213° Southwest 419 482 36,000  Level FlightAware ADS-B (KSNC)
02:00PM 41.7503 -71.8650 213° Southwest 421 484 36,000  Level FlightAware ADS-B (KSNC)
02:00PM 41.7081 -71.9017 213° Southwest 424 488 36,000  Level FlightAware ADS-B (KSNC)
02:01PM 41.6506 -71.9515 213° Southwest 424 488 36,000  Level FlightAware ADS-B (KSNC)
02:01PM 41.6017 -71.9938 213° Southwest 427 491 36,000  Level FlightAware ADS-B (KSNC)
02:02PM 41.5452 -72.0427 213° Southwest 427 491 36,000  Level FlightAware ADS-B (SBBR / BSB)
02:02PM 41.4986 -72.0829 213° Southwest 427 491 36,000  Level FlightAware ADS-B (KSNC)
02:03PM 41.4417 -72.1318 213° Southwest 425 489 36,000  Level FlightAware ADS-B (KSNC)
02:03PM 41.3877 -72.1783 213° Southwest 423 487 36,000  Level FlightAware ADS-B (KSNC)
02:04PM 41.3373 -72.2302 218° Southwest 421 484 36,000  Level FlightAware ADS-B (SBBR / BSB)
02:04PM 41.2888 -72.2811 218° Southwest 424 488 36,000  Level FlightAware ADS-B (SBBR / BSB)
02:05PM 41.2615 -72.3097 218° Southwest 427 491 36,000  Level FlightAware ADS-B (SBBR / BSB)
02:05PM 41.1954 -72.3790 218° Southwest 427 491 36,000  Level FlightAware ADS-B (SBBR / BSB)
02:06PM 41.1436 -72.4330 218° Southwest 425 489 36,000  Level FlightAware ADS-B (KSNC)
02:07PM 41.0959 -72.4826 218° Southwest 425 489 36,000  Level FlightAware ADS-B (SBBR / BSB)
02:07PM 41.0382 -72.5424 218° Southwest 424 488 36,000  Level FlightAware ADS-B (KSNC)
02:08PM 40.9930 -72.5894 218° Southwest 422 486 36,000  Level FlightAware ADS-B (KSNC)
02:08PM 40.9318 -72.6526 218° Southwest 418 481 36,000  Level FlightAware ADS-B (KSNC)
02:09PM 40.8565 -72.7302 218° Southwest 418 481 36,000  Level FlightAware ADS-B (KPVU)
02:10PM 40.8128 -72.7750 218° Southwest 420 483 36,000  Level FlightAware ADS-B (KSNC)
02:10PM 40.7664 -72.8227 218° Southwest 421 484 36,000  Level FlightAware ADS-B (KSNC)
02:11PM 40.7177 -72.8727 218° Southwest 425 489 36,000  Level FlightAware ADS-B (KSNC)
02:11PM 40.6694 -72.9221 218° Southwest 427 491 36,000  Level FlightAware ADS-B (KSNC)
02:12PM 40.6230 -72.9694 218° Southwest 428 493 36,000  Level FlightAware ADS-B (KSNC)
02:12PM 40.5749 -73.0183 218° Southwest 430 495 36,000  Level FlightAware ADS-B (KSNC)
02:13PM 40.5190 -73.0751 218° Southwest 431 496 36,000  Level FlightAware ADS-B (KWWD)
02:13PM 40.4588 -73.1362 218° Southwest 431 496 36,000  Level FlightAware ADS-B (KWWD)
02:14PM 40.4041 -73.1916 218° Southwest 433 498 36,000  Level FlightAware ADS-B (KSNC)
02:14PM 40.3848 -73.2111 218° Southwest 428 493 36,000  Level FlightAware ADS-B (KWWD)
02:15PM 40.3329 -73.2636 218° Southwest 436 502 36,000  Level FlightAware ADS-B (KSNC)
02:15PM 40.2841 -73.3126 217° Southwest 435 501 36,000  Level FlightAware ADS-B (KSNC)
02:16PM 40.2215 -73.3754 217° Southwest 428 493 36,000  Level FlightAware ADS-B (KWWD)
02:16PM 40.1691 -73.4280 217° Southwest 428 493 36,000  Level FlightAware ADS-B (KSNC)
02:17PM 40.1177 -73.4796 217° Southwest 427 491 36,000  Level FlightAware ADS-B (KWWD)
02:17PM 40.0693 -73.5279 217° Southwest 425 489 36,000  Level FlightAware ADS-B (KWWD)
02:18PM 40.0300 -73.5670 217° Southwest 423 487 36,000  Level FlightAware ADS-B (KWWD)
02:18PM 39.9752 -73.6215 217° Southwest 422 486 36,000  Level FlightAware ADS-B (KWWD)
02:19PM 39.9237 -73.6727 217° Southwest 421 484 36,000  Level FlightAware ADS-B (KSNC)
02:20PM 39.8748 -73.7212 217° Southwest 421 484 36,000  Level FlightAware ADS-B (KPVU)
02:20PM 39.8200 -73.7753 217° Southwest 421 484 36,000  Level FlightAware ADS-B (KSNC)
02:21PM 39.7552 -73.8338 215° Southwest 420 483 36,000  Level FlightAware ADS-B (KWWD)
02:21PM 39.7218 -73.8600 211° Southwest 420 483 36,000  Level FlightAware ADS-B (KWWD)
02:22PM 39.6612 -73.9082 211° Southwest 427 491 36,000  Level FlightAware ADS-B (KSNC)
02:22PM 39.6238 -73.9385 212° Southwest 419 482 36,000  Level FlightAware ADS-B (KWWD)
02:22PM 39.5997 -73.9582 212° Southwest 418 481 36,000  Level FlightAware ADS-B (KWWD)
02:23PM 39.5514 -73.9975 212° Southwest 419 482 36,000  Level FlightAware ADS-B (KSNC)
02:23PM 39.5009 -74.0386 212° Southwest 418 481 36,000  Level FlightAware ADS-B (KSNC)
02:24PM 39.4465 -74.0828 212° Southwest 416 479 36,000  Level FlightAware ADS-B (KSNC)
02:25PM 39.3861 -74.1317 212° Southwest 418 481 36,000  Level FlightAware ADS-B (KWWD)
02:25PM 39.3349 -74.1726 212° Southwest 412 474 36,000  Level FlightAware ADS-B (KSNC)
02:25PM 39.3181 -74.1862 212° Southwest 406 467 36,000  Level FlightAware ADS-B (KWWD)
02:26PM 39.2630 -74.2304 212° Southwest 414 476 36,000  Level FlightAware ADS-B (KSNC)
02:26PM 39.2039 -74.2776 212° Southwest 412 474 36,000  Level FlightAware ADS-B (KPVU)
02:27PM 39.1876 -74.2906 212° Southwest 412 474 36,000  Level FlightAware ADS-B (KPVU)
02:27PM 39.1301 -74.3366 212° Southwest 404 465 36,000  Level FlightAware ADS-B (KWWD)
02:28PM 39.0774 -74.3786 212° Southwest 405 466 36,000  Level FlightAware ADS-B (KWWD)
02:28PM 39.0308 -74.4157 212° Southwest 412 474 36,000  Level FlightAware ADS-B (KSBY)
02:29PM 38.9848 -74.4523 212° Southwest 412 474 36,000  Level FlightAware ADS-B (KSBY)
02:29PM 38.9309 -74.4951 212° Southwest 413 475 36,000  Level FlightAware ADS-B (KPVU)
02:30PM 38.8705 -74.5430 212° Southwest 414 476 36,000  Level FlightAware ADS-B (KSBY)
02:31PM 38.8071 -74.5929 212° Southwest 414 476 36,000  Level FlightAware ADS-B (KSBY)
02:31PM 38.7568 -74.6325 212° Southwest 402 463 36,000  Level FlightAware ADS-B (KWWD)
02:32PM 38.6974 -74.6793 212° Southwest 399 459 36,000  Level FlightAware ADS-B (KWWD)
02:32PM 38.6522 -74.7150 212° Southwest 404 465 36,000  Level FlightAware ADS-B
02:33PM 38.6090 -74.7490 212° Southwest 402 463 36,000  Level FlightAware ADS-B (KSBY)
02:33PM 38.5520 -74.7937 212° Southwest 401 461 36,000  Level FlightAware ADS-B (KSBY)
02:34PM 38.4972 -74.8365 211° Southwest 399 459 36,000  Level FlightAware ADS-B (KWWD)
02:34PM 38.4502 -74.8731 211° Southwest 399 459 36,000  Level FlightAware ADS-B (KSBY)
02:35PM 38.3808 -74.9271 211° Southwest 401 461 36,000  Level FlightAware ADS-B (KSBY)
02:36PM 38.3141 -74.9789 211° Southwest 402 463 36,000  Level FlightAware ADS-B (KSBY)
02:36PM 38.2996 -74.9902 211° Southwest 403 464 36,000  Level FlightAware ADS-B (KSBY)
02:37PM 38.2226 -75.0499 211° Southwest 403 464 36,000  Level FlightAware ADS-B (KSBY)
02:37PM 38.1554 -75.1019 211° Southwest 405 466 36,000  Level FlightAware ADS-B (KSBY)
02:38PM 38.1319 -75.1201 211° Southwest 405 466 36,000  Level FlightAware ADS-B (KSBY)
02:38PM 38.0751 -75.1640 211° Southwest 408 470 36,000  Level FlightAware ADS-B (KSBY)
02:38PM 38.0568 -75.1780 211° Southwest 401 461 36,000  Level FlightAware ADS-B (KWWD)
02:39PM 38.0410 -75.1902 211° Southwest 402 463 36,000  Level FlightAware ADS-B (KWWD)
02:39PM 38.0304 -75.1984 211° Southwest 408 470 36,000  Level FlightAware ADS-B (KSBY)
02:39PM 37.9925 -75.2276 211° Southwest 403 464 36,000  Level FlightAware ADS-B (KWWD)
02:40PM 37.9276 -75.2773 211° Southwest 413 475 36,000  Level FlightAware ADS-B (KWWD)
02:40PM 37.8724 -75.3196 211° Southwest 414 476 36,000  Level FlightAware ADS-B (KWWD)
02:41PM 37.8244 -75.3564 211° Southwest 416 479 36,000  Level FlightAware ADS-B (KWWD)
02:41PM 37.7745 -75.3944 211° Southwest 417 480 36,000  Level FlightAware ADS-B (KWWD)
02:42PM 37.7253 -75.4320 211° Southwest 416 479 36,000  Level FlightAware ADS-B (KWWD)
02:42PM 37.6740 -75.4709 211° Southwest 416 479 36,000  Level FlightAware ADS-B (KSBY)
02:43PM 37.6181 -75.5134 211° Southwest 416 479 36,000  Level FlightAware ADS-B (KSBY)
02:43PM 37.5605 -75.5572 211° Southwest 413 475 36,000  Level FlightAware ADS-B (KWWD)
02:44PM 37.5032 -75.6006 211° Southwest 423 487 36,000  Level FlightAware ADS-B (KSBY)
02:45PM 37.4477 -75.6426 211° Southwest 418 481 36,000  Level FlightAware ADS-B (KWWD)
02:45PM 37.3974 -75.6806 211° Southwest 419 482 36,000  Level FlightAware ADS-B (KWWD)
02:46PM 37.3397 -75.7241 211° Southwest 430 495 36,000  Level FlightAware ADS-B (KWWD)
02:46PM 37.2772 -75.7711 211° Southwest 432 497 36,000  Level FlightAware ADS-B (KWWD)
02:47PM 37.2222 -75.8123 211° Southwest 433 498 36,000  Level FlightAware ADS-B (KWWD)
02:47PM 37.1579 -75.8605 211° Southwest 431 496 36,000  Level FlightAware ADS-B (KWWD)
02:48PM 37.0914 -75.9101 211° Southwest 430 495 36,000  Level FlightAware ADS-B (KWWD)
02:49PM 37.0347 -75.9525 211° Southwest 430 495 36,000  Level FlightAware ADS-B
02:49PM 36.9769 -75.9955 211° Southwest 426 490 36,000  Level FlightAware ADS-B
02:50PM 36.9124 -76.0435 211° Southwest 418 481 36,000  Level FlightAware ADS-B (KWWD)
02:51PM 36.8412 -76.0962 211° Southwest 418 481 36,000  Level FlightAware ADS-B
02:52PM 36.7303 -76.1783 211° Southwest 417 480 36,000  Level FlightAware ADS-B
02:52PM 36.6709 -76.2222 211° Southwest 417 480 36,000  Level FlightAware ADS-B
02:53PM 36.6065 -76.2697 211° Southwest 418 481 36,000  Level FlightAware ADS-B
02:54PM 36.5351 -76.3221 211° Southwest 419 482 36,000  Level FlightAware ADS-B
02:54PM 36.5015 -76.3468 211° Southwest 423 487 36,000  Level FlightAware ADS-B
02:55PM 36.3990 -76.4218 210° Southwest 422 486 36,000  Level FlightAware ADS-B
02:56PM 36.3336 -76.4694 210° Southwest 422 486 36,000  Level FlightAware ADS-B
02:56PM 36.2813 -76.5076 210° Southwest 422 486 36,000  Level FlightAware ADS-B
02:57PM 36.2813 -76.5076 210° Southwest 421 484 36,000  Level FlightAware ADS-B
02:58PM 36.1323 -76.6159 210° Southwest 415 478 36,000  Level FlightAware ADS-B
02:59PM 36.0364 -76.6811 210° Southwest 427 491 36,000  Level Washington Center
03:00PM 35.9356 -76.7542 210° Southwest 422 486 36,000  Level Washington Center
03:01PM 35.8408 -76.8269 212° Southwest 417 480 36,000  Level Washington Center
03:02PM 35.7400 -76.8972 210° Southwest 417 480 36,000  Level Washington Center
03:03PM 35.6392 -76.9669 209° Southwest 417 480 36,000  Level Washington Center
03:04PM 35.5444 -77.0394 212° Southwest 412 474 36,000  Level Washington Center
03:05PM 35.4453 -77.1092 210° Southwest 412 474 36,000  Level Washington Center
03:06PM 35.3422 -77.1811 210° Southwest 412 474 36,000  Level Washington Center
03:07PM 35.2433 -77.2503 210° Southwest 417 480 36,000  Level Washington Center
03:08PM 35.1419 -77.3217 210° Southwest 422 486 36,000  Level Washington Center
03:09PM 35.0431 -77.3906 210° Southwest 422 486 36,000  Level Washington Center
03:10PM 34.9397 -77.4644 210° Southwest 427 491 36,000  Level Washington Center
03:11PM 34.8361 -77.5381 210° Southwest 427 491 36,000  Level Washington Center
03:12PM 34.7264 -77.6161 210° Southwest 427 491 36,000  Level Washington Center
03:13PM 34.6292 -77.6869 211° Southwest 427 491 36,000  Level Washington Center
03:14PM 34.5278 -77.7550 209° Southwest 422 486 36,000  Level Washington Center
03:15PM 34.4103 -77.7922 195° South 422 486 36,000  Level Washington Center
03:16PM 34.2928 -77.8242 193° South 427 491 36,000  Level Washington Center
03:17PM 34.0814 -77.8858 194° South 454 522 36,000  Level Jacksonville Center
03:18PM 33.9594 -77.9178 192° South 454 522 36,000  Level Jacksonville Center
03:19PM 33.8381 -77.9572 195° South 449 517 36,000  Level Jacksonville Center
03:20PM 33.7183 -77.9939 194° South 449 517 36,000  Level Jacksonville Center
03:21PM 33.5864 -78.0336 194° South 449 517 36,000  Level Jacksonville Center
03:22PM 33.4644 -78.0678 193° South 449 517 36,000  Level Jacksonville Center
03:23PM 33.3447 -78.1014 193° South 449 517 36,000  Level Jacksonville Center
03:24PM 33.2231 -78.1378 194° South 449 517 36,000  Level Jacksonville Center
03:25PM 33.1014 -78.1742 194° South 449 517 36,000  Level Jacksonville Center
03:26PM 32.9836 -78.2075 193° South 449 517 36,000  Level Jacksonville Center
03:27PM 32.8639 -78.2433 194° South 449 517 36,000  Level Jacksonville Center
03:28PM 32.7461 -78.2792 194° South 449 517 36,000  Level Jacksonville Center
03:29PM 32.6283 -78.3097 192° South 449 517 36,000  Level Jacksonville Center
03:30PM 32.5106 -78.3428 193° South 444 511 36,000  Level Jacksonville Center
03:31PM 32.3928 -78.3758 193° South 444 511 36,000  Level Jacksonville Center
03:32PM 32.2897 -78.4103 196° South 438 504 36,000  Level Jacksonville Center
03:33PM 32.1700 -78.4456 194° South 438 504 36,000  Level Jacksonville Center
03:34PM 32.0542 -78.4783 193° South 432 497 36,000  Level Jacksonville Center
03:35PM 31.9364 -78.5108 193° South 432 497 36,000  Level Jacksonville Center
03:36PM 31.8164 -78.5433 193° South 432 497 36,000  Level Jacksonville Center
03:37PM 31.6964 -78.5783 194° South 437 503 36,000  Level Jacksonville Center
03:38PM 31.5786 -78.6131 194° South 437 503 36,000  Level Jacksonville Center
03:39PM 31.4586 -78.6428 192° South 442 509 36,000  Level Jacksonville Center
03:40PM 31.3408 -78.6775 194° South 442 509 36,000  Level Jacksonville Center
03:41PM 31.2250 -78.7094 193° South 442 509 36,000  Level Jacksonville Center
03:42PM 31.1050 -78.7439 194° South 442 509 36,000  Level Jacksonville Center
03:43PM 30.9850 -78.7781 194° South 449 517 36,000  Level Jacksonville Center
03:44PM 30.8669 -78.8100 193° South 444 511 36,000  Level Jacksonville Center
03:45PM 30.7450 -78.8442 194° South 444 511 36,000  Level Jacksonville Center
03:46PM 30.6292 -78.8756 193° South 450 518 36,000  Level Jacksonville Center
03:48PM 30.4697 -78.9225 194° South 415 478 36,000  Level Miami Center
03:49PM 30.3564 -78.9636 197° South 422 486 36,000  Level Miami Center
03:50PM 30.2392 -79.0094 199° South 430 495 36,000  Level Miami Center
03:55PM 29.6164 -79.2538 199° South 440 506 36,000  Level FlightAware ADS-B (KMCO)
03:56PM 29.5103 -79.2957 199° South 440 506 36,000  Level FlightAware ADS-B (KMCO)
04:01PM 28.9468 -79.5158 199° South 440 506 36,000  Level FlightAware ADS-B (KMCO)
04:01PM 28.8744 -79.5439 199° South 440 506 36,000  Level FlightAware ADS-B (KMCO)
04:03PM 28.7558 -79.5899 199° South 438 504 36,000  Level FlightAware ADS-B (KMCO)
04:03PM 28.6840 -79.6177 199° South 439 505 36,000  Level FlightAware ADS-B (KMCO)
04:04PM 28.5650 -79.6636 199° South 440 506 36,000  Level FlightAware ADS-B (KMCO)
04:05PM 28.4707 -79.6998 199° South 440 506 36,000  Level FlightAware ADS-B (KMCO)
04:06PM 28.4107 -79.7230 199° South 439 505 36,000  Level FlightAware ADS-B (KMCO)
04:06PM 28.3519 -79.7455 199° South 439 505 36,000  Level FlightAware ADS-B (KMCO)
04:07PM 28.2750 -79.7750 199° South 441 507 36,000  Level FlightAware ADS-B (KMCO)
04:07PM 28.1969 -79.8049 199° South 441 507 36,000  Level FlightAware ADS-B (KMCO)
04:08PM 28.1376 -79.8276 199° South 439 505 36,000  Level FlightAware ADS-B (KMCO)
04:08PM 28.0644 -79.8555 199° South 438 504 36,000  Level FlightAware ADS-B (KMCO)
04:09PM 27.9744 -79.8898 199° South 440 506 36,000  Level FlightAware ADS-B (KMCO)
04:10PM 27.9056 -79.9160 199° South 440 506 36,000  Level FlightAware ADS-B (KMCO)
04:11PM 27.8298 -79.9448 199° South 440 506 36,000  Level FlightAware ADS-B (KMCO)
04:11PM 27.7697 -79.9677 199° South 440 506 36,000  Level FlightAware ADS-B (KMCO)
04:12PM 27.7143 -79.9887 199° South 441 507 36,000  Level FlightAware ADS-B (KMCO)
04:12PM 27.6540 -80.0115 199° South 440 506 36,000  Level FlightAware ADS-B (KMCO)
04:13PM 27.5971 -80.0330 199° South 440 506 36,000  Level FlightAware ADS-B (KMCO)
04:13PM 27.5210 -80.0618 199° South 439 505 36,000  Level FlightAware ADS-B (KMCO)
04:14PM 27.4625 -80.0839 199° South 440 506 36,000  Level FlightAware ADS-B (KMCO)
04:14PM 27.4027 -80.1064 198° South 440 506 36,000  Level FlightAware ADS-B (KMCO)
04:15PM 27.3399 -80.1300 198° South 442 509 36,000  Level FlightAware ADS-B (KMCO)
04:15PM 27.2868 -80.1500 198° South 443 510 36,000  Level FlightAware ADS-B (KMCO)
04:16PM 27.2138 -80.1774 199° South 443 510 36,000  Level FlightAware ADS-B (KMCO)
04:16PM 27.1427 -80.2041 198° South 444 511 36,000  Level FlightAware ADS-B (KMCO)
04:17PM 27.0828 -80.2266 198° South 443 510 36,000  Level FlightAware ADS-B (KMCO)
04:18PM 26.9720 -80.2680 198° South 442 509 36,000  Level FlightAware ADS-B (KMCO)
04:19PM 26.7912 -80.3355 198° South 440 506 36,000  Level FlightAware ADS-B (KMCO)
04:20PM 26.7326 -80.3573 198° South 441 507 36,000  Level FlightAware ADS-B (KMCO)
04:24PM 26.2868 -80.5224 198° South 443 510 36,000  Level FlightAware ADS-B (KMCO)
04:25PM 26.1944 -80.5567 198° South 448 516 36,000  Level Miami Center
04:26PM 26.0783 -80.5992 198° South 443 510 36,000  Level Miami Center
04:27PM 25.9603 -80.6442 199° South 448 516 36,000  Level Miami Center
04:28PM 25.8444 -80.6889 199° South 448 516 36,000  Level Miami Center
04:29PM 25.7281 -80.7428 203° Southwest 448 516 36,000  Level Miami Center
04:30PM 25.6358 -80.8275 220° Southwest 441 507 36,000  Level Miami Center
04:31PM 25.5333 -80.9183 219° Southwest 441 507 36,000  Level Miami Center
04:32PM 25.4389 -81.0028 219° Southwest 441 507 36,000  Level Miami Center
04:33PM 25.3447 -81.0869 219° Southwest 441 507 36,000  Level Miami Center
04:34PM 25.2525 -81.1708 219° Southwest 441 507 36,000  Level Miami Center
04:35PM 25.1603 -81.2503 218° Southwest 436 502 36,000  Level Miami Center
04:36PM 25.0658 -81.3339 219° Southwest 436 502 36,000  Level Miami Center
04:37PM 24.9694 -81.4175 218° Southwest 436 502 36,000 -120 Level Miami Center
04:38PM 24.8792 -81.4989 219° Southwest 436 502 35,800 -600 Descending Miami Center
04:39PM 24.8039 -81.5647 218° Southwest 436 502 34,800 -1,200 Descending Miami Center
04:40PM 24.7069 -81.6547 220° Southwest 436 502 33,500 -1,320 Descending Miami Center
04:41PM 24.5956 -81.7464 217° Southwest 447 514 32,200 -1,260 Descending Miami Center
04:42PM 24.5089 -81.8389 224° Southwest 441 507 31,000 -1,200 Descending Miami Center
04:43PM 24.4411 -81.9294 231° Southwest 423 487 29,800 -1,200 Descending Miami Center
04:44PM 24.3708 -82.0269 232° Southwest 410 472 28,600 -1,200 Descending Miami Center
04:45PM 24.3008 -82.1175 230° Southwest 405 466 27,400 -1,200 Descending Miami Center
04:46PM 24.2331 -82.2033 229° Southwest 394 453 26,200 -1,200 Descending Miami Center
04:47PM 24.1694 -82.2939 232° Southwest 382 440 25,000 -1,200 Descending Miami Center
04:48PM 24.1017 -82.3775 228° Southwest 382 440 23,800 -1,200 Descending Miami Center
04:49PM 24.0275 -82.4606 226° Southwest 382 440 22,600 -2,040 Descending Miami Center
04:50PM 23.9294 -82.5131 206° Southwest 382 440 19,800 -2,700 Descending Miami Center
04:51PM 23.8178 -82.5375 191° South 393 452 17,300 -2,520 Descending Miami Center
04:53PM 23.6245 -82.4691 175° South  Level FlightAware Approximate
05:00PM 22.9891 -82.4091 180° South  Level Estimated
05:01PM 22.9891 -82.4091 180° South  Level Estimated
05:02PM 22.9891 -82.4091 180° South  Level Estimated
05:03PM 22.9891 -82.4091 180° South  Level Estimated
05:04PM 22.9891 -82.4091 180° South  Level Estimated
05:05PM 22.9891 -82.4091 180° South  Level Estimated
05:06PM 22.9891 -82.4091 180° South  Level Estimated
05:07PM 22.9891 -82.4091 180° South  Level Estimated
05:08PM 22.9891 -82.4091 180° South  Level Estimated
05:09PM 22.9891 -82.4091 180° South  Level Estimated
05:10PM 22.9891 -82.4091 180° South  Level Estimated
05:11PM 22.9891 -82.4091 180° South  Level Estimated
05:12PM 22.9891 -82.4091 180° South  Level Estimated
05:13PM 22.9891 -82.4091 180° South  Level Estimated
05:14PM 22.9891 -82.4091 180° South  Level Estimated
05:15PM 22.9891 -82.4091 180° South  Level Estimated
05:16PM 22.9891 -82.4091 180° South  Level Estimated
05:17PM 22.9891 -82.4091 180° South  Level Estimated
05:18PM 22.9891 -82.4091 180° South  Level Estimated
05:19PM 22.9891 -82.4091 180° South  Level Estimated
05:20PM 22.9891 -82.4091 180° South  Level Estimated